Time;durP1;ratioP1;P1;durP2;ratioP2;P2;SDS_P1;SDS_P2;PMS_P1;PMS_P2;Temp;Humidity;BMP_temperature;BMP_pressure;BME280_temperature;BME280_humidity;BME280_pressure;Samples;Min_cycle;Max_cycle;Signal;HPM_P1;HPM_P2
2023/02/10 00:00:42;;;;;;;48.13;21.73;;;;;;;-2.08;88.04;101183.81;5074251;28;20032;-58
2023/02/10 00:03:07;;;;;;;53.67;21.50;;;;;;;-2.13;88.64;101194.66;5035036;28;20644;-59
2023/02/10 00:05:33;;;;;;;49.20;21.88;;;;;;;-1.98;91.00;101197.94;5047765;28;20025;-58
2023/02/10 00:07:58;;;;;;;45.92;21.23;;;;;;;-2.02;89.64;101196.47;5036243;28;20032;-59
2023/02/10 00:10:23;;;;;;;54.40;20.58;;;;;;;-2.12;90.26;101195.47;5049466;28;20045;-58
2023/02/10 00:12:49;;;;;;;53.10;20.95;;;;;;;-2.30;90.79;101197.66;5032030;28;20026;-59
2023/02/10 00:15:14;;;;;;;50.30;22.98;;;;;;;-2.13;91.18;101189.41;5047007;28;20052;-58
2023/02/10 00:17:40;;;;;;;76.70;32.20;;;;;;;-2.14;89.33;101190.38;5036692;28;20049;-58
2023/02/10 00:20:07;;;;;;;78.97;31.02;;;;;;;-1.93;89.55;101194.97;5046823;28;20377;-59
2023/02/10 00:22:33;;;;;;;62.50;27.08;;;;;;;-1.90;89.32;101200.84;5041216;28;20155;-59
2023/02/10 00:25:01;;;;;;;64.10;27.63;;;;;;;-1.89;89.34;101202.53;5040111;28;20035;-59
2023/02/10 00:27:27;;;;;;;59.63;24.75;;;;;;;-1.98;90.38;101217.19;5046923;28;20115;-59
2023/02/10 00:29:52;;;;;;;70.57;27.67;;;;;;;-2.13;91.42;101222.72;5065838;28;20410;-58
2023/02/10 00:32:18;;;;;;;59.53;26.23;;;;;;;-2.08;91.25;101217.97;5051711;28;20033;-59
2023/02/10 00:34:44;;;;;;;72.32;27.40;;;;;;;-2.01;91.68;101219.19;5039562;28;20070;-58
2023/02/10 00:37:10;;;;;;;61.92;24.77;;;;;;;-1.99;91.67;101231.28;5038425;28;20029;-59
2023/02/10 00:39:35;;;;;;;63.40;24.17;;;;;;;-2.00;90.68;101237.50;5048213;28;20497;-58
2023/02/10 00:42:00;;;;;;;54.10;23.90;;;;;;;-1.99;91.42;101233.91;5034443;28;20375;-59
2023/02/10 00:44:26;;;;;;;52.63;23.33;;;;;;;-1.96;90.54;101231.03;5054691;28;20094;-59
2023/02/10 00:46:51;;;;;;;49.05;23.10;;;;;;;-1.82;91.10;101230.03;5034159;28;20121;-59
2023/02/10 00:49:17;;;;;;;54.25;24.02;;;;;;;-1.89;91.74;101246.38;5039196;28;20029;-59
2023/02/10 00:51:42;;;;;;;55.22;23.55;;;;;;;-1.96;92.80;101259.13;5023780;28;20033;-59
2023/02/10 00:54:09;;;;;;;52.03;22.60;;;;;;;-2.01;93.28;101256.81;5042298;28;20088;-58
2023/02/10 00:56:35;;;;;;;48.33;22.85;;;;;;;-2.15;93.82;101254.34;5030406;28;20021;-59
2023/02/10 00:59:00;;;;;;;55.00;23.50;;;;;;;-2.05;93.05;101257.16;5044210;28;20352;-58
2023/02/10 01:01:26;;;;;;;52.55;23.63;;;;;;;-1.93;92.66;101258.06;5043626;28;20357;-58
2023/02/10 01:03:51;;;;;;;54.55;24.23;;;;;;;-1.79;92.51;101258.72;5040206;28;20456;-59
2023/02/10 01:06:17;;;;;;;52.60;23.35;;;;;;;-1.73;92.61;101263.53;5041441;28;20194;-59
2023/02/10 01:08:42;;;;;;;50.47;22.35;;;;;;;-1.59;93.03;101273.03;5040776;28;20044;-58
2023/02/10 01:11:09;;;;;;;50.65;23.55;;;;;;;-1.65;92.49;101265.59;5044470;28;20518;-59
2023/02/10 01:13:35;;;;;;;56.83;24.67;;;;;;;-1.62;92.11;101270.63;5039760;28;20344;-58
2023/02/10 01:16:03;;;;;;;58.45;22.77;;;;;;;-1.61;92.71;101269.69;5074543;28;20037;-59
2023/02/10 01:18:29;;;;;;;52.50;23.58;;;;;;;-1.61;91.93;101269.69;5041633;28;20049;-58
2023/02/10 01:20:54;;;;;;;57.33;24.50;;;;;;;-1.60;91.88;101268.75;5041915;28;20583;-59
2023/02/10 01:23:20;;;;;;;52.05;22.73;;;;;;;-1.50;91.18;101268.03;5044350;28;20043;-58
2023/02/10 01:25:45;;;;;;;54.72;23.60;;;;;;;-1.49;91.61;101262.66;5044513;28;20022;-59
2023/02/10 01:28:12;;;;;;;48.42;22.48;;;;;;;-1.59;91.42;101265.16;5042146;28;20032;-59
2023/02/10 01:30:37;;;;;;;43.33;20.63;;;;;;;-1.58;92.92;101263.34;5029254;28;20029;-58
2023/02/10 01:33:03;;;;;;;56.65;23.35;;;;;;;-1.54;94.05;101270.06;5032169;28;20029;-58
2023/02/10 01:35:28;;;;;;;54.10;24.30;;;;;;;-1.64;94.19;101264.66;5051899;28;20395;-59
2023/02/10 01:37:54;;;;;;;52.35;22.55;;;;;;;-1.59;95.04;101269.56;5043009;28;20037;-59
2023/02/10 01:40:20;;;;;;;54.65;22.15;;;;;;;-1.52;95.12;101279.53;5040656;28;20017;-59
2023/02/10 01:42:46;;;;;;;57.20;23.90;;;;;;;-1.57;95.86;101271.13;5037257;28;20258;-59
2023/02/10 01:45:13;;;;;;;54.85;23.02;;;;;;;-1.57;97.15;101281.66;5034358;28;20033;-59
2023/02/10 01:47:40;;;;;;;60.40;24.23;;;;;;;-1.74;96.62;101276.81;5043833;28;20057;-59
2023/02/10 01:50:05;;;;;;;53.53;23.17;;;;;;;-1.67;97.36;101280.66;5048476;28;20041;-58
2023/02/10 01:52:32;;;;;;;56.58;23.40;;;;;;;-1.65;97.22;101284.00;5045086;28;20116;-59
2023/02/10 01:55:02;;;;;;;64.53;24.58;;;;;;;-1.66;97.18;101287.59;5039121;28;20399;-58
2023/02/10 01:57:27;;;;;;;52.85;23.88;;;;;;;-1.67;96.50;101285.91;5031485;28;20028;-59
2023/02/10 01:59:52;;;;;;;50.78;22.83;;;;;;;-1.68;94.67;101284.22;5041906;28;20037;-59
2023/02/10 02:02:18;;;;;;;52.55;23.35;;;;;;;-1.70;94.19;101290.53;5046770;28;20032;-58
2023/02/10 02:04:58;;;;;;;50.25;22.65;;;;;;;-1.57;93.58;101292.19;5039429;28;20020;-59
2023/02/10 02:07:25;;;;;;;55.00;23.10;;;;;;;-1.70;93.52;101299.25;5039192;28;20032;-58
2023/02/10 02:09:51;;;;;;;50.88;22.30;;;;;;;-1.67;93.29;101306.09;5046189;28;20352;-58
2023/02/10 02:12:29;;;;;;;52.00;23.55;;;;;;;-1.63;93.37;101289.97;5047577;28;20084;-59
2023/02/10 02:15:09;;;;;;;38.65;18.77;;;;;;;-1.66;93.38;101290.22;5043569;28;20063;-58
2023/02/10 02:17:37;;;;;;;56.75;25.17;;;;;;;-1.61;93.12;101293.34;5041953;28;20047;-59
2023/02/10 02:20:41;;;;;;;52.95;21.83;;;;;;;-1.68;93.80;101286.03;5044217;28;20122;-58
2023/02/10 02:23:21;;;;;;;63.90;23.60;;;;;;;-1.65;94.71;101289.25;5044378;28;20048;-58
2023/02/10 02:25:55;;;;;;;46.88;22.48;;;;;;;-1.58;94.33;101290.47;5046123;28;20535;-58
2023/02/10 02:28:36;;;;;;;51.28;23.00;;;;;;;-1.64;94.29;101306.72;5045057;28;20027;-58
2023/02/10 02:31:13;;;;;;;54.45;23.63;;;;;;;-1.63;94.50;101308.38;5044987;28;20018;-58
2023/02/10 02:34:14;;;;;;;49.25;22.75;;;;;;;-1.63;95.20;101297.03;5040905;28;20087;-58
2023/02/10 02:36:49;;;;;;;51.22;23.27;;;;;;;-1.63;94.93;101305.75;5041821;28;20047;-58
2023/02/10 02:39:14;;;;;;;51.05;23.17;;;;;;;-1.45;97.61;101303.56;5052644;28;20029;-58
2023/02/10 02:41:40;;;;;;;62.63;26.10;;;;;;;-1.56;96.03;101296.47;5049295;28;20029;-58
2023/02/10 02:44:05;;;;;;;63.38;24.58;;;;;;;-1.66;95.61;101303.38;5045290;28;20454;-58
2023/02/10 02:46:49;;;;;;;68.90;25.58;;;;;;;-1.68;95.70;101300.00;5050799;28;20543;-58
2023/02/10 02:49:23;;;;;;;60.10;25.13;;;;;;;-1.62;96.35;101293.44;5048491;28;20033;-58
2023/02/10 02:52:06;;;;;;;61.20;25.33;;;;;;;-1.63;96.65;101305.75;5047677;28;20028;-58
2023/02/10 02:54:42;;;;;;;48.63;20.55;;;;;;;-1.73;96.41;101296.88;5070643;28;20475;-58
2023/02/10 02:57:21;;;;;;;59.90;24.25;;;;;;;-1.68;96.90;101299.16;5072149;28;20487;-58
2023/02/10 03:00:04;;;;;;;65.93;25.73;;;;;;;-1.63;97.01;101289.97;5048599;28;20064;-58
2023/02/10 03:02:30;;;;;;;52.20;23.52;;;;;;;-1.77;96.64;101295.44;5027581;28;20071;-58
2023/02/10 03:04:55;;;;;;;60.85;25.52;;;;;;;-1.66;97.13;101292.84;5022388;28;20026;-58
2023/02/10 03:07:21;;;;;;;68.28;26.80;;;;;;;-1.66;96.90;101295.47;5049118;28;20028;-58
2023/02/10 03:09:46;;;;;;;61.60;25.50;;;;;;;-1.65;96.70;101291.03;5037150;28;20065;-58
2023/02/10 03:12:12;;;;;;;64.78;25.20;;;;;;;-1.65;96.54;101291.88;5073120;28;20147;-58
2023/02/10 03:14:38;;;;;;;58.53;26.23;;;;;;;-1.53;97.14;101301.50;5045459;28;20418;-58
2023/02/10 03:17:04;;;;;;;52.28;21.45;;;;;;;-1.66;97.12;101295.47;5044075;28;20045;-58
2023/02/10 03:19:30;;;;;;;49.03;21.85;;;;;;;-1.71;97.38;101304.66;5046669;28;20040;-60
2023/02/10 03:21:55;;;;;;;61.45;24.63;;;;;;;-1.71;97.80;101296.78;5032165;28;20075;-58
2023/02/10 03:24:21;;;;;;;54.58;22.73;;;;;;;-1.72;98.30;101311.72;5040217;28;20032;-58
2023/02/10 03:26:46;;;;;;;65.00;26.92;;;;;;;-1.67;98.17;101309.59;5042779;28;20041;-57
2023/02/10 03:29:12;;;;;;;56.05;24.30;;;;;;;-1.62;98.37;101306.59;5037234;28;20085;-57
2023/02/10 03:31:38;;;;;;;61.88;27.08;;;;;;;-1.69;98.28;101308.84;5052343;28;20032;-57
2023/02/10 03:34:03;;;;;;;68.13;26.38;;;;;;;-1.70;98.17;101306.31;5042826;28;20312;-57
2023/02/10 03:36:28;;;;;;;66.45;29.58;;;;;;;-1.71;98.79;101308.13;5045998;28;20493;-57
2023/02/10 03:38:54;;;;;;;68.05;27.35;;;;;;;-1.76;98.97;101308.44;5036528;28;20534;-59
2023/02/10 03:41:19;;;;;;;61.15;25.85;;;;;;;-1.69;99.22;101316.75;5044748;28;20083;-57
2023/02/10 03:43:45;;;;;;;62.20;27.80;;;;;;;-1.65;99.39;101310.28;5042238;28;20037;-60
2023/02/10 03:46:13;;;;;;;56.22;24.77;;;;;;;-1.64;99.24;101317.25;5048329;28;20494;-58
2023/02/10 03:48:38;;;;;;;60.25;26.88;;;;;;;-1.67;99.20;101319.25;5040117;28;20025;-58
2023/02/10 03:51:05;;;;;;;62.08;27.10;;;;;;;-1.63;98.89;101318.91;5043040;28;20108;-58
2023/02/10 03:53:30;;;;;;;67.15;27.45;;;;;;;-1.57;98.89;101315.00;5033263;28;20037;-58
2023/02/10 03:55:56;;;;;;;65.00;26.77;;;;;;;-1.59;98.71;101317.75;5046744;28;20036;-58
2023/02/10 03:58:22;;;;;;;54.78;25.83;;;;;;;-1.61;99.24;101317.00;5042367;28;20031;-58
2023/02/10 04:00:48;;;;;;;62.13;25.90;;;;;;;-1.62;98.47;101319.75;5052734;28;20033;-59
2023/02/10 04:03:14;;;;;;;59.08;25.13;;;;;;;-1.63;98.61;101324.16;5038839;28;20480;-58
2023/02/10 04:05:39;;;;;;;59.65;27.65;;;;;;;-1.63;98.83;101326.78;5043586;28;20052;-59
2023/02/10 04:08:05;;;;;;;67.03;26.67;;;;;;;-1.60;99.10;101329.22;5039926;28;20083;-59
2023/02/10 04:10:30;;;;;;;67.90;27.33;;;;;;;-1.43;100.00;101340.28;5036112;28;20882;-59
2023/02/10 04:12:56;;;;;;;58.63;25.65;;;;;;;-1.45;98.93;101343.00;5039456;28;20057;-59
2023/02/10 04:15:21;;;;;;;66.72;28.23;;;;;;;-1.26;100.00;101329.34;5044866;28;20062;-59
2023/02/10 04:17:47;;;;;;;61.00;25.67;;;;;;;-1.38;100.00;101338.16;5039382;28;20025;-59
2023/02/10 04:20:12;;;;;;;59.55;27.60;;;;;;;-1.48;99.30;101337.16;5047537;28;20041;-58
2023/02/10 04:22:37;;;;;;;60.38;27.48;;;;;;;-1.49;99.13;101343.38;5028138;28;20028;-59
2023/02/10 04:25:03;;;;;;;65.80;27.08;;;;;;;-1.52;98.98;101341.81;5038950;28;20420;-59
2023/02/10 04:27:29;;;;;;;59.72;25.55;;;;;;;-1.56;99.24;101340.34;5042590;28;20052;-59
2023/02/10 04:29:55;;;;;;;60.05;27.00;;;;;;;-1.58;99.40;101332.56;5037503;28;20108;-59
2023/02/10 04:32:20;;;;;;;55.33;23.95;;;;;;;-1.55;99.30;101331.50;5042573;28;20040;-59
2023/02/10 04:34:46;;;;;;;69.32;27.58;;;;;;;-1.50;99.12;101320.63;5037680;28;20045;-59
2023/02/10 04:37:11;;;;;;;61.83;27.45;;;;;;;-1.48;98.50;101321.38;5046143;28;20060;-58
2023/02/10 04:39:37;;;;;;;56.60;27.17;;;;;;;-1.40;99.10;101319.00;5040703;28;20059;-58
2023/02/10 04:42:02;;;;;;;62.72;26.25;;;;;;;-1.43;98.38;101319.25;5045580;28;20525;-59
2023/02/10 04:44:28;;;;;;;64.78;27.55;;;;;;;-1.52;97.96;101311.09;5045657;28;20081;-59
2023/02/10 04:46:53;;;;;;;64.53;28.13;;;;;;;-1.54;97.60;101323.50;5042329;28;20083;-58
2023/02/10 04:49:19;;;;;;;65.18;26.90;;;;;;;-1.59;97.37;101324.78;5040320;28;20060;-58
2023/02/10 04:51:44;;;;;;;66.25;26.55;;;;;;;-1.60;97.54;101323.97;5043442;28;20112;-57
2023/02/10 04:54:09;;;;;;;65.15;28.20;;;;;;;-1.64;97.75;101335.66;5041002;28;20040;-57
2023/02/10 04:56:35;;;;;;;60.63;25.17;;;;;;;-1.61;97.19;101335.41;5041202;28;20033;-57
2023/02/10 04:59:00;;;;;;;65.95;26.65;;;;;;;-1.60;97.53;101345.00;5047614;28;20600;-59
2023/02/10 05:01:26;;;;;;;65.63;27.00;;;;;;;-1.54;96.94;101339.28;5047373;28;20466;-57
2023/02/10 05:03:51;;;;;;;57.83;24.10;;;;;;;-1.56;96.44;101338.53;5042603;28;20036;-58
2023/02/10 05:06:17;;;;;;;54.05;24.30;;;;;;;-1.57;96.11;101336.06;5040066;28;20083;-57
2023/02/10 05:08:42;;;;;;;58.35;26.02;;;;;;;-1.60;95.92;101321.34;5042580;28;20493;-59
2023/02/10 05:11:14;;;;;;;48.78;23.45;;;;;;;-1.61;95.80;101332.78;5043369;28;20551;-60
2023/02/10 05:13:39;;;;;;;47.20;21.35;;;;;;;-1.69;95.48;101322.00;5026882;28;20068;-60
2023/02/10 05:16:06;;;;;;;42.30;17.58;;;;;;;-1.77;95.33;101319.09;5044565;28;20506;-60
2023/02/10 05:18:32;;;;;;;45.60;23.50;;;;;;;-1.84;95.47;101317.84;5044575;28;20554;-59
2023/02/10 05:20:58;;;;;;;63.75;26.65;;;;;;;-1.86;95.51;101310.06;5036015;28;20079;-60
2023/02/10 05:23:23;;;;;;;38.67;17.30;;;;;;;-1.91;95.65;101298.22;5038992;28;20090;-59
2023/02/10 05:25:49;;;;;;;44.78;22.20;;;;;;;-1.93;95.44;101300.13;5044294;28;20120;-59
2023/02/10 05:28:14;;;;;;;62.78;25.25;;;;;;;-1.92;95.25;101304.41;5049707;28;20071;-58
2023/02/10 05:30:40;;;;;;;33.78;15.32;;;;;;;-1.94;94.67;101306.34;5037194;28;20029;-59
2023/02/10 05:33:05;;;;;;;48.70;23.13;;;;;;;-2.06;94.86;101290.47;5042815;28;20089;-60
2023/02/10 05:35:31;;;;;;;49.70;22.15;;;;;;;-2.11;95.38;101292.59;5036233;28;20030;-59
2023/02/10 05:37:56;;;;;;;50.67;24.60;;;;;;;-2.12;95.39;101298.81;5045044;28;20032;-60
2023/02/10 05:40:22;;;;;;;39.83;18.52;;;;;;;-2.13;95.06;101301.53;5034766;28;20074;-59
2023/02/10 05:42:47;;;;;;;33.08;18.08;;;;;;;-2.21;95.54;101302.09;5043411;28;20032;-59
2023/02/10 05:45:13;;;;;;;46.47;20.23;;;;;;;-2.18;95.64;101307.13;5044439;28;20685;-61
2023/02/10 05:47:39;;;;;;;61.97;26.55;;;;;;;-2.21;95.85;101302.09;5033521;28;20424;-58
2023/02/10 05:50:04;;;;;;;41.75;22.33;;;;;;;-2.26;95.69;101309.47;5029887;28;20041;-58
2023/02/10 05:52:30;;;;;;;57.03;23.38;;;;;;;-2.19;95.48;101310.72;5046004;28;20061;-58
2023/02/10 05:54:55;;;;;;;49.13;22.27;;;;;;;-2.19;94.97;101321.22;5039071;28;20375;-58
2023/02/10 05:57:21;;;;;;;60.47;25.90;;;;;;;-2.21;95.16;101323.13;5069528;28;20494;-59
2023/02/10 05:59:46;;;;;;;57.63;23.13;;;;;;;-2.30;95.86;101329.00;5038039;28;20029;-58
2023/02/10 06:02:12;;;;;;;58.67;25.50;;;;;;;-2.27;95.69;101326.16;5039837;28;20372;-59
2023/02/10 06:04:37;;;;;;;63.70;23.80;;;;;;;-2.38;96.60;101337.41;5043563;28;20025;-59
2023/02/10 06:07:03;;;;;;;51.70;22.63;;;;;;;-2.54;96.67;101328.94;5040005;28;20052;-59
2023/02/10 06:09:28;;;;;;;64.18;26.27;;;;;;;-2.56;98.50;101322.97;5037220;28;20128;-58
2023/02/10 06:11:54;;;;;;;59.55;25.10;;;;;;;-2.54;97.67;101337.66;5038490;28;20034;-59
2023/02/10 06:14:19;;;;;;;58.58;24.45;;;;;;;-2.57;97.69;101337.00;5042337;28;20055;-59
2023/02/10 06:16:57;;;;;;;54.97;23.60;;;;;;;-2.52;97.80;101337.53;5043061;28;20037;-59
2023/02/10 06:19:22;;;;;;;59.95;23.92;;;;;;;-2.60;97.54;101348.56;5042352;28;20032;-59
2023/02/10 06:21:48;;;;;;;61.80;24.50;;;;;;;-2.64;97.63;101347.13;5042073;28;20037;-60
2023/02/10 06:24:13;;;;;;;59.67;24.60;;;;;;;-2.66;97.59;101349.00;5043511;28;20037;-60
2023/02/10 06:26:39;;;;;;;62.72;24.23;;;;;;;-2.58;97.46;101354.56;5039449;28;20033;-58
2023/02/10 06:29:05;;;;;;;53.92;23.27;;;;;;;-2.61;97.71;101350.34;5045181;28;20032;-60
2023/02/10 06:31:30;;;;;;;59.83;25.55;;;;;;;-2.55;97.98;101356.13;5047478;28;20035;-61
2023/02/10 06:33:55;;;;;;;54.08;23.83;;;;;;;-2.62;97.46;101366.25;5045125;28;20353;-59
2023/02/10 06:36:21;;;;;;;62.17;23.38;;;;;;;-2.70;97.86;101364.09;5040295;28;20037;-59
2023/02/10 06:38:49;;;;;;;73.63;27.25;;;;;;;-2.75;98.15;101370.63;5036371;28;20178;-59
2023/02/10 06:41:15;;;;;;;55.65;26.25;;;;;;;-2.66;98.24;101368.22;5043885;28;20531;-59
2023/02/10 06:43:40;;;;;;;59.40;24.13;;;;;;;-2.61;97.94;101365.28;5040487;28;20104;-59
2023/02/10 06:46:06;;;;;;;52.90;22.08;;;;;;;-2.55;97.53;101367.47;5049120;28;20064;-59
2023/02/10 06:48:32;;;;;;;62.22;24.17;;;;;;;-2.49;97.90;101361.81;5049181;28;20104;-59
2023/02/10 06:50:57;;;;;;;39.40;18.05;;;;;;;-2.50;97.27;101370.63;5043680;28;20033;-59
2023/02/10 06:53:23;;;;;;;35.55;18.13;;;;;;;-2.56;97.75;101367.59;5043376;28;20052;-58
2023/02/10 06:55:49;;;;;;;45.35;23.25;;;;;;;-2.55;97.49;101364.84;5040461;28;20029;-59
2023/02/10 06:58:14;;;;;;;47.33;20.38;;;;;;;-2.57;98.21;101358.88;5047293;28;20033;-59
2023/02/10 07:00:40;;;;;;;60.92;23.90;;;;;;;-2.49;97.87;101374.09;5040489;28;20033;-59
2023/02/10 07:03:05;;;;;;;45.70;21.20;;;;;;;-2.48;97.90;101371.34;5043593;28;20058;-59
2023/02/10 07:05:31;;;;;;;57.50;24.27;;;;;;;-2.46;97.76;101379.97;5043853;28;20033;-59
2023/02/10 07:07:58;;;;;;;54.63;22.70;;;;;;;-2.48;97.48;101373.97;5043106;28;20029;-58
2023/02/10 07:10:24;;;;;;;42.15;19.73;;;;;;;-2.45;97.62;101373.75;5033839;28;20061;-59
2023/02/10 07:12:51;;;;;;;54.92;25.13;;;;;;;-2.45;97.69;101384.28;5041239;28;20052;-59
2023/02/10 07:15:18;;;;;;;59.28;23.60;;;;;;;-2.39;97.88;101391.75;5044088;28;20061;-59
2023/02/10 07:17:44;;;;;;;64.75;27.80;;;;;;;-2.33;97.38;101397.53;5048291;28;20094;-59
2023/02/10 07:20:10;;;;;;;69.43;29.20;;;;;;;-2.28;97.49;101390.16;5042006;28;20028;-59
2023/02/10 07:22:36;;;;;;;62.72;26.95;;;;;;;-2.25;97.22;101388.16;5046523;28;20037;-59
2023/02/10 07:25:01;;;;;;;52.30;23.85;;;;;;;-2.18;97.12;101385.94;5041671;28;20028;-59
2023/02/10 07:27:27;;;;;;;58.75;27.25;;;;;;;-2.05;97.37;101392.00;5052969;28;20024;-59
2023/02/10 07:29:52;;;;;;;42.00;18.83;;;;;;;-1.97;97.34;101389.69;5044073;28;20056;-60
2023/02/10 07:32:18;;;;;;;60.33;27.80;;;;;;;-1.85;96.94;101397.66;5044685;28;20032;-59
2023/02/10 07:34:49;;;;;;;54.80;26.45;;;;;;;-1.60;95.92;101416.00;5043912;28;20029;-59
2023/02/10 07:37:14;;;;;;;56.60;25.83;;;;;;;-1.62;95.08;101411.78;5038453;28;20051;-59
2023/02/10 07:39:40;;;;;;;59.35;26.73;;;;;;;-0.69;92.65;101415.44;5045499;28;20017;-60
2023/02/10 07:42:05;;;;;;;63.10;27.13;;;;;;;-0.81;90.32;101421.63;5044754;28;20470;-60
2023/02/10 07:44:31;;;;;;;58.75;25.08;;;;;;;-0.53;88.38;101422.16;5057325;28;20082;-59
2023/02/10 07:46:57;;;;;;;68.72;30.95;;;;;;;-0.88;90.20;101426.50;5035192;28;20036;-60
2023/02/10 07:49:22;;;;;;;62.85;25.85;;;;;;;-1.18;92.63;101424.34;5049115;28;20078;-60
2023/02/10 07:51:47;;;;;;;25.42;11.85;;;;;;;-1.44;93.54;101428.06;5042281;28;20032;-59
2023/02/10 07:54:13;;;;;;;55.08;24.98;;;;;;;-1.29;93.05;101426.94;5046458;28;20035;-58
2023/02/10 07:56:38;;;;;;;50.17;19.75;;;;;;;-1.52;94.49;101426.81;5045087;28;20049;-58
2023/02/10 07:59:04;;;;;;;41.40;20.88;;;;;;;-1.58;95.16;101432.50;5048710;28;20068;-58
2023/02/10 08:01:30;;;;;;;50.20;23.17;;;;;;;-1.50;95.27;101439.00;5037705;28;20021;-60
2023/02/10 08:03:57;;;;;;;57.88;25.48;;;;;;;-1.41;96.28;101439.19;5040534;28;20029;-57
2023/02/10 08:06:23;;;;;;;55.53;23.33;;;;;;;-1.32;96.29;101449.03;5044249;28;20108;-58
2023/02/10 08:08:49;;;;;;;53.97;24.13;;;;;;;-1.17;95.79;101447.09;5075614;28;20422;-58
2023/02/10 08:11:14;;;;;;;61.67;25.80;;;;;;;-0.96;94.71;101452.56;5048973;28;20537;-58
2023/02/10 08:13:40;;;;;;;47.55;21.55;;;;;;;-0.98;94.88;101451.00;5051643;28;20491;-58
2023/02/10 08:16:07;;;;;;;45.45;18.48;;;;;;;-1.10;95.64;101442.19;5048117;28;20025;-58
2023/02/10 08:18:36;;;;;;;42.58;20.30;;;;;;;-1.05;95.86;101439.22;5042197;28;20031;-57
2023/02/10 08:21:01;;;;;;;47.90;21.90;;;;;;;-0.81;96.88;101444.47;5043043;28;20029;-58
2023/02/10 08:23:27;;;;;;;64.22;26.77;;;;;;;-0.69;97.01;101438.31;5044405;28;20036;-58
2023/02/10 08:25:55;;;;;;;59.63;25.30;;;;;;;-0.60;96.80;101444.66;5045292;28;20383;-58
2023/02/10 08:28:21;;;;;;;59.88;25.92;;;;;;;-0.52;97.00;101439.66;5045056;28;20020;-58
2023/02/10 08:30:46;;;;;;;60.85;26.98;;;;;;;-0.57;97.30;101428.66;5042140;28;20679;-59
2023/02/10 08:33:12;;;;;;;48.47;20.33;;;;;;;-0.63;98.38;101426.47;5036060;28;20052;-59
2023/02/10 08:35:38;;;;;;;36.92;18.08;;;;;;;-0.61;97.74;101428.03;5040015;28;20020;-60
2023/02/10 08:38:04;;;;;;;53.25;23.85;;;;;;;-0.47;97.50;101424.34;5046629;28;20549;-58
2023/02/10 08:40:29;;;;;;;51.13;22.92;;;;;;;-0.61;99.24;101424.56;5045707;28;20035;-59
2023/02/10 08:42:55;;;;;;;67.35;28.15;;;;;;;-0.43;100.00;101433.69;5042231;28;20369;-59
2023/02/10 08:45:21;;;;;;;53.40;24.15;;;;;;;-0.41;99.50;101434.41;5048920;28;20028;-58
2023/02/10 08:47:47;;;;;;;67.45;26.50;;;;;;;-0.45;99.74;101435.59;5043487;28;20029;-59
2023/02/10 08:50:15;;;;;;;67.03;26.88;;;;;;;-0.29;99.37;101433.47;5043738;28;20685;-60
2023/02/10 08:52:41;;;;;;;62.45;26.42;;;;;;;-0.25;100.00;101434.06;5037379;28;20025;-59
2023/02/10 08:55:07;;;;;;;46.22;22.23;;;;;;;-0.22;100.00;101434.69;5055706;28;20032;-59
2023/02/10 08:57:34;;;;;;;64.65;24.80;;;;;;;-0.11;99.96;101433.00;5036382;28;20029;-59
2023/02/10 09:00:00;;;;;;;46.30;21.65;;;;;;;0.02;99.76;101436.34;5043992;28;20021;-60
2023/02/10 09:02:25;;;;;;;49.50;21.27;;;;;;;0.38;99.04;101431.78;5041043;28;20504;-60
2023/02/10 09:04:54;;;;;;;60.33;22.73;;;;;;;0.40;98.30;101421.94;5040829;28;20472;-60
2023/02/10 09:07:19;;;;;;;42.53;20.00;;;;;;;0.59;98.28;101419.50;5038490;28;20050;-59
2023/02/10 09:09:45;;;;;;;55.78;22.77;;;;;;;1.06;96.29;101425.34;5037424;28;20790;-58
2023/02/10 09:12:11;;;;;;;54.25;23.02;;;;;;;1.02;96.12;101420.44;5041040;28;20025;-60
2023/02/10 09:14:37;;;;;;;46.03;20.55;;;;;;;0.48;96.75;101427.44;5039631;28;20032;-60
2023/02/10 09:17:03;;;;;;;50.65;19.27;;;;;;;0.38;98.17;101426.50;5045770;28;20088;-59
2023/02/10 09:19:28;;;;;;;44.72;23.17;;;;;;;0.12;98.28;101436.47;5039815;28;20036;-59
2023/02/10 09:21:56;;;;;;;32.83;15.02;;;;;;;0.11;97.50;101429.53;5057076;28;20511;-59
2023/02/10 09:24:23;;;;;;;42.88;19.48;;;;;;;0.18;97.10;101434.19;5055616;28;20028;-59
2023/02/10 09:26:48;;;;;;;47.58;22.67;;;;;;;0.28;96.43;101444.88;5040924;28;20826;-59
2023/02/10 09:29:14;;;;;;;48.83;21.17;;;;;;;0.06;96.51;101442.25;5040947;28;20022;-60
2023/02/10 09:31:39;;;;;;;41.45;21.60;;;;;;;0.17;95.80;101440.41;5041646;28;20392;-59
2023/02/10 09:34:04;;;;;;;36.42;18.75;;;;;;;0.14;95.91;101445.09;5038509;28;20024;-60
2023/02/10 09:36:30;;;;;;;50.17;24.17;;;;;;;0.04;96.29;101447.63;5034886;28;20083;-60
2023/02/10 09:38:56;;;;;;;39.90;19.48;;;;;;;0.16;95.61;101448.47;5040039;28;20422;-59
2023/02/10 09:41:25;;;;;;;43.90;22.23;;;;;;;0.42;95.19;101441.97;5047682;28;20033;-59
2023/02/10 09:43:56;;;;;;;42.47;20.27;;;;;;;1.02;90.99;101441.56;5035572;28;20025;-59
2023/02/10 09:46:46;;;;;;;45.40;20.70;;;;;;;1.22;90.17;101437.25;5044460;28;20024;-59
2023/02/10 09:49:24;;;;;;;40.57;19.83;;;;;;;1.31;88.00;101439.16;5038926;28;20032;-59
2023/02/10 09:52:28;;;;;;;43.58;23.50;;;;;;;1.70;87.54;101444.69;5042917;28;20471;-59
2023/02/10 09:54:54;;;;;;;40.80;20.63;;;;;;;2.06;86.73;101453.06;5038152;28;20041;-60
2023/02/10 09:57:30;;;;;;;42.97;20.92;;;;;;;2.87;84.77;101456.53;5043335;28;20453;-59
2023/02/10 09:59:56;;;;;;;37.80;18.38;;;;;;;2.62;82.90;101460.53;5029214;28;20468;-59
2023/02/10 10:02:23;;;;;;;33.92;17.50;;;;;;;2.19;85.80;101453.69;5047347;28;20025;-59
2023/02/10 10:04:48;;;;;;;43.65;20.02;;;;;;;2.70;86.17;101463.31;5034248;28;20025;-59
2023/02/10 10:07:21;;;;;;;40.78;20.33;;;;;;;3.28;82.92;101465.16;5036235;28;20045;-59
2023/02/10 10:10:10;;;;;;;40.10;16.25;;;;;;;2.80;84.65;101458.88;5034493;28;20045;-59
2023/02/10 10:12:36;;;;;;;37.72;16.70;;;;;;;2.77;84.88;101458.28;5035976;28;20049;-59
2023/02/10 10:15:03;;;;;;;42.72;21.40;;;;;;;3.36;83.20;101460.00;5070643;28;20475;-59
2023/02/10 10:17:53;;;;;;;35.45;17.77;;;;;;;3.78;82.73;101458.81;5044662;28;20029;-59
2023/02/10 10:20:57;;;;;;;36.45;18.33;;;;;;;4.67;77.02;101466.28;5046886;28;20040;-59
2023/02/10 10:23:40;;;;;;;32.03;14.93;;;;;;;3.56;80.69;101466.13;4994589;28;20384;-59
2023/02/10 10:26:09;;;;;;;30.90;15.00;;;;;;;3.71;80.40;101463.84;5005804;28;20053;-59
2023/02/10 10:28:49;;;;;;;31.20;14.15;;;;;;;2.93;83.90;101468.38;5029613;28;20049;-59
2023/02/10 10:31:18;;;;;;;38.33;17.73;;;;;;;3.78;82.22;101464.13;5078191;28;20037;-59
2023/02/10 10:33:56;;;;;;;32.55;16.85;;;;;;;4.02;79.76;101471.59;5042222;28;20095;-59
2023/02/10 10:36:23;;;;;;;35.13;17.02;;;;;;;3.63;82.44;101472.53;5026684;28;20481;-58
2023/02/10 10:38:57;;;;;;;32.83;15.38;;;;;;;3.49;81.38;101474.78;5036420;28;20420;-59
2023/02/10 10:41:25;;;;;;;29.40;14.70;;;;;;;3.13;82.78;101478.00;5025464;28;20028;-59
2023/02/10 10:43:52;;;;;;;33.33;16.45;;;;;;;3.60;83.84;101475.47;5020085;28;20052;-60
2023/02/10 10:46:42;;;;;;;31.38;16.52;;;;;;;3.43;83.23;101484.13;5046002;28;20029;-59
2023/02/10 10:49:07;;;;;;;34.03;16.00;;;;;;;3.20;83.83;101465.88;5031688;28;20107;-59
2023/02/10 10:51:34;;;;;;;36.22;16.90;;;;;;;3.35;84.97;101473.41;5047873;28;20032;-59
2023/02/10 10:53:59;;;;;;;31.90;16.02;;;;;;;3.24;85.65;101477.88;5056634;28;20029;-59
2023/02/10 10:56:39;;;;;;;26.92;14.10;;;;;;;2.74;87.02;101477.94;5039947;28;20056;-59
2023/02/10 10:59:18;;;;;;;38.83;17.58;;;;;;;3.08;85.61;101468.81;5044007;28;20113;-59
2023/02/10 11:01:45;;;;;;;33.42;16.67;;;;;;;3.40;85.00;101461.41;5043623;28;20067;-59
2023/02/10 11:04:18;;;;;;;28.52;13.82;;;;;;;3.35;84.90;101466.28;5045851;28;20462;-60
2023/02/10 11:06:46;;;;;;;32.70;16.17;;;;;;;3.14;86.36;101461.13;5041271;28;20036;-59
2023/02/10 11:09:40;;;;;;;32.58;15.00;;;;;;;3.44;84.90;101460.16;5042129;28;20480;-59
2023/02/10 11:12:15;;;;;;;36.42;17.17;;;;;;;3.15;86.55;101454.84;5046180;28;20022;-59
2023/02/10 11:14:42;;;;;;;26.58;13.40;;;;;;;2.88;86.24;101452.06;5039231;28;20126;-59